sensor_id;sensor_type;location;lat;lon;timestamp;pressure;altitude;pressure_sealevel;temperature;humidity
84145;BME280;74264;48.988;12.040;2024-02-26T00:01:11;96286.06;;;0.69;94.22
84145;BME280;74264;48.988;12.040;2024-02-26T00:03:36;96279.13;;;0.60;94.47
84145;BME280;74264;48.988;12.040;2024-02-26T00:06:02;96282.88;;;0.75;95.26
84145;BME280;74264;48.988;12.040;2024-02-26T00:08:28;96287.03;;;1.03;95.86
84145;BME280;74264;48.988;12.040;2024-02-26T00:10:54;96282.56;;;1.57;96.10
84145;BME280;74264;48.988;12.040;2024-02-26T00:13:19;96276.56;;;1.39;95.18
84145;BME280;74264;48.988;12.040;2024-02-26T00:15:46;96279.31;;;1.55;95.20
84145;BME280;74264;48.988;12.040;2024-02-26T00:18:11;96286.00;;;1.57;94.71
84145;BME280;74264;48.988;12.040;2024-02-26T00:20:37;96280.00;;;1.39;94.21
84145;BME280;74264;48.988;12.040;2024-02-26T00:23:02;96283.66;;;1.11;94.17
84145;BME280;74264;48.988;12.040;2024-02-26T00:25:28;96277.75;;;1.01;94.67
84145;BME280;74264;48.988;12.040;2024-02-26T00:27:54;96281.88;;;0.76;93.96
84145;BME280;74264;48.988;12.040;2024-02-26T00:30:19;96281.31;;;0.82;95.00
84145;BME280;74264;48.988;12.040;2024-02-26T00:32:45;96281.59;;;0.97;95.23
84145;BME280;74264;48.988;12.040;2024-02-26T00:35:10;96284.06;;;0.98;95.11
84145;BME280;74264;48.988;12.040;2024-02-26T00:37:36;96278.13;;;0.88;95.16
84145;BME280;74264;48.988;12.040;2024-02-26T00:40:02;96275.56;;;0.79;94.89
84145;BME280;74264;48.988;12.040;2024-02-26T00:42:27;96280.38;;;0.74;95.16
84145;BME280;74264;48.988;12.040;2024-02-26T00:44:53;96282.88;;;0.75;95.11
84145;BME280;74264;48.988;12.040;2024-02-26T00:47:19;96279.50;;;1.00;95.76
84145;BME280;74264;48.988;12.040;2024-02-26T00:49:44;96276.63;;;1.47;95.91
84145;BME280;74264;48.988;12.040;2024-02-26T00:52:10;96265.63;;;1.61;95.56
84145;BME280;74264;48.988;12.040;2024-02-26T00:54:36;96263.09;;;1.43;95.42
84145;BME280;74264;48.988;12.040;2024-02-26T00:57:01;96259.88;;;1.49;95.24
84145;BME280;74264;48.988;12.040;2024-02-26T00:59:27;96255.31;;;1.51;95.18
84145;BME280;74264;48.988;12.040;2024-02-26T01:01:52;96264.97;;;1.59;94.56
84145;BME280;74264;48.988;12.040;2024-02-26T01:04:18;96274.03;;;1.72;94.56
84145;BME280;74264;48.988;12.040;2024-02-26T01:06:43;96267.31;;;1.70;94.37
84145;BME280;74264;48.988;12.040;2024-02-26T01:09:09;96264.56;;;1.46;94.03
84145;BME280;74264;48.988;12.040;2024-02-26T01:11:34;96264.47;;;1.12;92.95
84145;BME280;74264;48.988;12.040;2024-02-26T01:14:00;96263.22;;;0.98;93.67
84145;BME280;74264;48.988;12.040;2024-02-26T01:16:26;96266.88;;;0.88;94.21
84145;BME280;74264;48.988;12.040;2024-02-26T01:18:54;96259.47;;;0.66;94.07
84145;BME280;74264;48.988;12.040;2024-02-26T01:21:19;96258.19;;;0.52;94.25
84145;BME280;74264;48.988;12.040;2024-02-26T01:23:45;96256.16;;;0.46;94.33
84145;BME280;74264;48.988;12.040;2024-02-26T01:26:10;96251.94;;;0.28;93.84
84145;BME280;74264;48.988;12.040;2024-02-26T01:28:36;96256.97;;;0.29;94.52
84145;BME280;74264;48.988;12.040;2024-02-26T01:31:02;96255.81;;;0.14;94.57
84145;BME280;74264;48.988;12.040;2024-02-26T01:33:30;96265.66;;;0.20;94.61
84145;BME280;74264;48.988;12.040;2024-02-26T01:35:56;96256.19;;;0.19;94.65
84145;BME280;74264;48.988;12.040;2024-02-26T01:38:21;96260.13;;;0.06;94.60
84145;BME280;74264;48.988;12.040;2024-02-26T01:40:47;96262.16;;;0.02;94.88
84145;BME280;74264;48.988;12.040;2024-02-26T01:43:12;96260.16;;;-0.04;94.94
84145;BME280;74264;48.988;12.040;2024-02-26T01:45:38;96267.66;;;-0.01;95.29
84145;BME280;74264;48.988;12.040;2024-02-26T01:48:04;96278.78;;;-0.09;94.98
84145;BME280;74264;48.988;12.040;2024-02-26T01:50:30;96275.41;;;-0.19;94.90
84145;BME280;74264;48.988;12.040;2024-02-26T01:52:56;96273.38;;;-0.25;95.09
84145;BME280;74264;48.988;12.040;2024-02-26T01:55:23;96273.53;;;-0.26;95.00
84145;BME280;74264;48.988;12.040;2024-02-26T01:57:50;96266.16;;;-0.40;94.80
84145;BME280;74264;48.988;12.040;2024-02-26T02:00:18;96266.00;;;-0.39;95.28
84145;BME280;74264;48.988;12.040;2024-02-26T02:02:44;96271.81;;;-0.08;96.04
84145;BME280;74264;48.988;12.040;2024-02-26T02:05:12;96262.06;;;-0.06;96.02
84145;BME280;74264;48.988;12.040;2024-02-26T02:07:40;96267.38;;;0.02;95.98
84145;BME280;74264;48.988;12.040;2024-02-26T02:10:06;96252.38;;;0.41;96.44
84145;BME280;74264;48.988;12.040;2024-02-26T02:12:33;96266.03;;;0.25;96.17
84145;BME280;74264;48.988;12.040;2024-02-26T02:15:00;96258.03;;;0.09;96.12
84145;BME280;74264;48.988;12.040;2024-02-26T02:17:27;96255.44;;;0.36;96.04
84145;BME280;74264;48.988;12.040;2024-02-26T02:19:53;96250.97;;;0.46;96.33
84145;BME280;74264;48.988;12.040;2024-02-26T02:22:19;96261.09;;;0.49;96.09
84145;BME280;74264;48.988;12.040;2024-02-26T02:24:45;96265.63;;;0.47;95.39
84145;BME280;74264;48.988;12.040;2024-02-26T02:27:10;96254.91;;;0.33;95.33
84145;BME280;74264;48.988;12.040;2024-02-26T02:29:36;96248.00;;;0.14;94.83
84145;BME280;74264;48.988;12.040;2024-02-26T02:32:03;96244.03;;;-0.08;94.04
84145;BME280;74264;48.988;12.040;2024-02-26T02:34:30;96243.47;;;-0.11;94.35
84145;BME280;74264;48.988;12.040;2024-02-26T02:36:56;96240.78;;;-0.19;94.33
84145;BME280;74264;48.988;12.040;2024-02-26T02:39:22;96244.63;;;-0.23;94.26
84145;BME280;74264;48.988;12.040;2024-02-26T02:41:47;96242.50;;;-0.10;94.85
84145;BME280;74264;48.988;12.040;2024-02-26T02:44:13;96244.53;;;-0.04;95.19
84145;BME280;74264;48.988;12.040;2024-02-26T02:46:39;96239.31;;;0.06;95.22
84145;BME280;74264;48.988;12.040;2024-02-26T02:49:09;96236.56;;;0.07;95.39
84145;BME280;74264;48.988;12.040;2024-02-26T02:51:35;96242.47;;;-0.01;94.86
84145;BME280;74264;48.988;12.040;2024-02-26T02:54:01;96238.69;;;-0.16;94.18
84145;BME280;74264;48.988;12.040;2024-02-26T02:56:26;96240.28;;;-0.32;93.76
84145;BME280;74264;48.988;12.040;2024-02-26T02:58:52;96235.78;;;-0.40;93.83
84145;BME280;74264;48.988;12.040;2024-02-26T03:01:18;96238.38;;;-0.40;94.31
84145;BME280;74264;48.988;12.040;2024-02-26T03:03:43;96238.13;;;-0.46;94.44
84145;BME280;74264;48.988;12.040;2024-02-26T03:06:09;96235.63;;;-0.38;94.93
84145;BME280;74264;48.988;12.040;2024-02-26T03:08:34;96237.97;;;-0.35;94.97
84145;BME280;74264;48.988;12.040;2024-02-26T03:11:04;96241.34;;;-0.25;95.01
84145;BME280;74264;48.988;12.040;2024-02-26T03:13:29;96239.56;;;-0.25;94.92
84145;BME280;74264;48.988;12.040;2024-02-26T03:15:55;96241.00;;;-0.13;94.83
84145;BME280;74264;48.988;12.040;2024-02-26T03:18:20;96239.22;;;-0.12;95.18
84145;BME280;74264;48.988;12.040;2024-02-26T03:20:46;96245.53;;;-0.15;94.83
84145;BME280;74264;48.988;12.040;2024-02-26T03:23:11;96246.91;;;-0.20;94.41
84145;BME280;74264;48.988;12.040;2024-02-26T03:25:44;96237.00;;;-0.34;94.24
84145;BME280;74264;48.988;12.040;2024-02-26T03:28:11;96231.28;;;-0.47;94.05
84145;BME280;74264;48.988;12.040;2024-02-26T03:30:38;96234.16;;;-0.41;94.24
84145;BME280;74264;48.988;12.040;2024-02-26T03:33:03;96224.41;;;-0.39;94.37
84145;BME280;74264;48.988;12.040;2024-02-26T03:35:29;96228.81;;;-0.39;93.94
84145;BME280;74264;48.988;12.040;2024-02-26T03:37:55;96234.84;;;-0.48;93.87
84145;BME280;74264;48.988;12.040;2024-02-26T03:40:20;96236.19;;;-0.44;94.06
84145;BME280;74264;48.988;12.040;2024-02-26T03:42:46;96236.34;;;-0.46;94.32
84145;BME280;74264;48.988;12.040;2024-02-26T03:45:12;96236.75;;;-0.41;94.83
84145;BME280;74264;48.988;12.040;2024-02-26T03:47:37;96230.19;;;-0.45;94.63
84145;BME280;74264;48.988;12.040;2024-02-26T03:50:06;96229.38;;;-0.55;94.32
84145;BME280;74264;48.988;12.040;2024-02-26T03:52:32;96223.81;;;-0.60;94.20
84145;BME280;74264;48.988;12.040;2024-02-26T03:54:58;96226.41;;;-0.60;94.28
84145;BME280;74264;48.988;12.040;2024-02-26T03:57:24;96234.72;;;-0.56;94.52
84145;BME280;74264;48.988;12.040;2024-02-26T03:59:49;96232.13;;;-0.56;94.53
84145;BME280;74264;48.988;12.040;2024-02-26T04:02:16;96232.97;;;-0.56;94.51
84145;BME280;74264;48.988;12.040;2024-02-26T04:04:41;96220.66;;;-0.54;94.73
84145;BME280;74264;48.988;12.040;2024-02-26T04:07:07;96220.00;;;-0.65;94.67
84145;BME280;74264;48.988;12.040;2024-02-26T04:09:33;96225.34;;;-0.76;94.02
84145;BME280;74264;48.988;12.040;2024-02-26T04:11:58;96232.75;;;-0.81;94.13
84145;BME280;74264;48.988;12.040;2024-02-26T04:14:24;96228.47;;;-0.73;94.70
84145;BME280;74264;48.988;12.040;2024-02-26T04:16:49;96220.53;;;-0.71;94.87
84145;BME280;74264;48.988;12.040;2024-02-26T04:19:17;96212.06;;;-0.73;94.58
84145;BME280;74264;48.988;12.040;2024-02-26T04:21:43;96227.09;;;-0.67;94.70
84145;BME280;74264;48.988;12.040;2024-02-26T04:24:09;96238.47;;;-0.68;94.79
84145;BME280;74264;48.988;12.040;2024-02-26T04:26:35;96245.00;;;-0.64;94.49
84145;BME280;74264;48.988;12.040;2024-02-26T04:29:00;96241.16;;;-0.60;94.75
84145;BME280;74264;48.988;12.040;2024-02-26T04:31:26;96240.78;;;-0.65;94.90
84145;BME280;74264;48.988;12.040;2024-02-26T04:33:52;96240.25;;;-0.78;94.08
84145;BME280;74264;48.988;12.040;2024-02-26T04:36:17;96227.81;;;-0.75;94.35
84145;BME280;74264;48.988;12.040;2024-02-26T04:38:44;96243.38;;;-0.75;94.73
84145;BME280;74264;48.988;12.040;2024-02-26T04:41:10;96233.84;;;-0.84;94.43
84145;BME280;74264;48.988;12.040;2024-02-26T04:43:36;96236.97;;;-0.80;94.46
84145;BME280;74264;48.988;12.040;2024-02-26T04:46:09;96240.41;;;-0.80;94.08
84145;BME280;74264;48.988;12.040;2024-02-26T04:48:36;96240.41;;;-0.80;94.60
84145;BME280;74264;48.988;12.040;2024-02-26T04:51:02;96236.03;;;-0.79;94.31
84145;BME280;74264;48.988;12.040;2024-02-26T04:53:28;96245.16;;;-0.75;94.72
84145;BME280;74264;48.988;12.040;2024-02-26T04:55:54;96238.06;;;-0.73;94.68
84145;BME280;74264;48.988;12.040;2024-02-26T04:58:20;96232.91;;;-0.92;93.73
84145;BME280;74264;48.988;12.040;2024-02-26T05:00:45;96239.59;;;-0.90;94.13
84145;BME280;74264;48.988;12.040;2024-02-26T05:03:11;96237.13;;;-0.82;94.57
84145;BME280;74264;48.988;12.040;2024-02-26T05:05:44;96251.19;;;-0.75;94.55
84145;BME280;74264;48.988;12.040;2024-02-26T05:08:09;96251.88;;;-0.73;94.38
84145;BME280;74264;48.988;12.040;2024-02-26T05:10:37;96247.22;;;-0.69;94.46
84145;BME280;74264;48.988;12.040;2024-02-26T05:13:05;96266.38;;;-0.70;94.31
84145;BME280;74264;48.988;12.040;2024-02-26T05:15:31;96263.63;;;-0.69;94.06
84145;BME280;74264;48.988;12.040;2024-02-26T05:17:57;96266.78;;;-0.65;93.84
84145;BME280;74264;48.988;12.040;2024-02-26T05:20:23;96268.16;;;-0.71;93.64
84145;BME280;74264;48.988;12.040;2024-02-26T05:22:49;96270.88;;;-0.72;93.58
84145;BME280;74264;48.988;12.040;2024-02-26T05:25:15;96265.84;;;-0.74;93.36
84145;BME280;74264;48.988;12.040;2024-02-26T05:27:41;96270.22;;;-0.74;93.43
84145;BME280;74264;48.988;12.040;2024-02-26T05:30:07;96268.97;;;-0.80;93.42
84145;BME280;74264;48.988;12.040;2024-02-26T05:32:33;96272.41;;;-0.89;92.90
84145;BME280;74264;48.988;12.040;2024-02-26T05:34:59;96274.31;;;-0.91;93.49
84145;BME280;74264;48.988;12.040;2024-02-26T05:37:24;96264.06;;;-0.92;93.61
84145;BME280;74264;48.988;12.040;2024-02-26T05:39:50;96274.47;;;-0.92;93.42
84145;BME280;74264;48.988;12.040;2024-02-26T05:42:15;96265.84;;;-0.83;94.51
84145;BME280;74264;48.988;12.040;2024-02-26T05:44:41;96262.41;;;-0.93;93.97
84145;BME280;74264;48.988;12.040;2024-02-26T05:47:06;96263.41;;;-0.94;93.88
84145;BME280;74264;48.988;12.040;2024-02-26T05:49:32;96268.16;;;-1.00;93.82
84145;BME280;74264;48.988;12.040;2024-02-26T05:51:59;96265.72;;;-1.01;93.82
84145;BME280;74264;48.988;12.040;2024-02-26T05:54:25;96265.72;;;-1.01;93.93
84145;BME280;74264;48.988;12.040;2024-02-26T05:56:50;96258.47;;;-1.07;93.72
84145;BME280;74264;48.988;12.040;2024-02-26T05:59:16;96264.06;;;-1.12;93.73
84145;BME280;74264;48.988;12.040;2024-02-26T06:01:41;96271.59;;;-1.18;93.92
84145;BME280;74264;48.988;12.040;2024-02-26T06:04:07;96267.66;;;-1.13;94.32
84145;BME280;74264;48.988;12.040;2024-02-26T06:06:33;96264.47;;;-1.16;94.18
84145;BME280;74264;48.988;12.040;2024-02-26T06:08:58;96263.25;;;-1.12;94.40
84145;BME280;74264;48.988;12.040;2024-02-26T06:11:24;96265.69;;;-1.11;94.41
84145;BME280;74264;48.988;12.040;2024-02-26T06:13:49;96264.34;;;-1.24;93.66
84145;BME280;74264;48.988;12.040;2024-02-26T06:16:15;96262.84;;;-1.17;94.13
84145;BME280;74264;48.988;12.040;2024-02-26T06:18:41;96260.09;;;-1.16;94.43
84145;BME280;74264;48.988;12.040;2024-02-26T06:21:09;96261.72;;;-1.05;94.51
84145;BME280;74264;48.988;12.040;2024-02-26T06:23:36;96265.03;;;-0.93;94.46
84145;BME280;74264;48.988;12.040;2024-02-26T06:26:01;96278.69;;;-0.91;94.09
84145;BME280;74264;48.988;12.040;2024-02-26T06:28:27;96281.84;;;-0.88;93.59
84145;BME280;74264;48.988;12.040;2024-02-26T06:30:56;96280.59;;;-0.84;93.49
84145;BME280;74264;48.988;12.040;2024-02-26T06:33:21;96277.72;;;-0.81;93.84
84145;BME280;74264;48.988;12.040;2024-02-26T06:35:47;96292.50;;;-0.81;93.49
84145;BME280;74264;48.988;12.040;2024-02-26T06:38:12;96296.72;;;-0.80;93.61
84145;BME280;74264;48.988;12.040;2024-02-26T06:40:39;96298.38;;;-0.79;93.56
84145;BME280;74264;48.988;12.040;2024-02-26T06:43:05;96302.06;;;-0.82;93.57
84145;BME280;74264;48.988;12.040;2024-02-26T06:45:31;96307.53;;;-0.75;93.57
84145;BME280;74264;48.988;12.040;2024-02-26T06:47:57;96313.69;;;-0.67;93.30
84145;BME280;74264;48.988;12.040;2024-02-26T06:50:22;96315.03;;;-0.53;93.12
84145;BME280;74264;48.988;12.040;2024-02-26T06:52:49;96316.66;;;-0.43;92.66
84145;BME280;74264;48.988;12.040;2024-02-26T06:55:14;96322.81;;;-0.44;92.38
84145;BME280;74264;48.988;12.040;2024-02-26T06:57:40;96328.44;;;-0.48;92.36
84145;BME280;74264;48.988;12.040;2024-02-26T07:00:06;96329.13;;;-0.46;92.76
84145;BME280;74264;48.988;12.040;2024-02-26T07:02:31;96333.91;;;-0.42;92.35
84145;BME280;74264;48.988;12.040;2024-02-26T07:04:57;96335.25;;;-0.38;92.33
84145;BME280;74264;48.988;12.040;2024-02-26T07:07:24;96334.56;;;-0.30;92.26
84145;BME280;74264;48.988;12.040;2024-02-26T07:09:49;96338.25;;;-0.23;92.22
84145;BME280;74264;48.988;12.040;2024-02-26T07:12:15;96341.91;;;-0.16;92.25
84145;BME280;74264;48.988;12.040;2024-02-26T07:14:41;96329.56;;;-0.05;92.31
84145;BME280;74264;48.988;12.040;2024-02-26T07:17:07;96334.31;;;0.10;92.19
84145;BME280;74264;48.988;12.040;2024-02-26T07:19:34;96334.94;;;0.21;92.27
84145;BME280;74264;48.988;12.040;2024-02-26T07:21:59;96340.84;;;0.23;91.47
84145;BME280;74264;48.988;12.040;2024-02-26T07:24:28;96344.50;;;0.30;91.88
84145;BME280;74264;48.988;12.040;2024-02-26T07:26:54;96342.56;;;0.32;91.71
84145;BME280;74264;48.988;12.040;2024-02-26T07:29:22;96356.50;;;0.41;91.69
84145;BME280;74264;48.988;12.040;2024-02-26T07:31:48;96355.22;;;0.54;91.64
84145;BME280;74264;48.988;12.040;2024-02-26T07:34:13;96363.53;;;0.67;90.06
84145;BME280;74264;48.988;12.040;2024-02-26T07:36:39;96357.06;;;0.71;89.28
84145;BME280;74264;48.988;12.040;2024-02-26T07:39:05;96357.53;;;0.84;88.51
84145;BME280;74264;48.988;12.040;2024-02-26T07:41:31;96355.00;;;0.92;89.12
84145;BME280;74264;48.988;12.040;2024-02-26T07:43:56;96346.97;;;1.03;88.06
84145;BME280;74264;48.988;12.040;2024-02-26T07:46:22;96349.06;;;1.18;88.42
84145;BME280;74264;48.988;12.040;2024-02-26T07:48:47;96357.03;;;1.34;87.93
84145;BME280;74264;48.988;12.040;2024-02-26T07:51:13;96354.28;;;1.53;87.90
84145;BME280;74264;48.988;12.040;2024-02-26T07:53:40;96365.19;;;1.74;86.60
84145;BME280;74264;48.988;12.040;2024-02-26T07:56:06;96362.91;;;1.96;85.78
84145;BME280;74264;48.988;12.040;2024-02-26T07:58:34;96357.97;;;2.11;84.61
84145;BME280;74264;48.988;12.040;2024-02-26T08:01:00;96364.59;;;2.31;84.53
84145;BME280;74264;48.988;12.040;2024-02-26T08:03:26;96358.28;;;2.42;83.25
84145;BME280;74264;48.988;12.040;2024-02-26T08:05:52;96364.94;;;2.62;84.41
84145;BME280;74264;48.988;12.040;2024-02-26T08:08:18;96358.38;;;2.58;82.58
84145;BME280;74264;48.988;12.040;2024-02-26T08:10:43;96360.25;;;2.81;83.75
84145;BME280;74264;48.988;12.040;2024-02-26T08:13:09;96368.19;;;3.06;83.39
84145;BME280;74264;48.988;12.040;2024-02-26T08:15:35;96367.53;;;3.03;83.03
84145;BME280;74264;48.988;12.040;2024-02-26T08:18:03;96363.78;;;3.06;81.50
84145;BME280;74264;48.988;12.040;2024-02-26T08:20:29;96356.41;;;3.01;81.17
84145;BME280;74264;48.988;12.040;2024-02-26T08:22:55;96344.63;;;2.97;82.23
84145;BME280;74264;48.988;12.040;2024-02-26T08:25:21;96354.47;;;3.12;82.35
84145;BME280;74264;48.988;12.040;2024-02-26T08:27:47;96357.25;;;3.18;82.06
84145;BME280;74264;48.988;12.040;2024-02-26T08:30:14;96354.97;;;3.23;81.33
84145;BME280;74264;48.988;12.040;2024-02-26T08:32:48;96361.06;;;3.32;81.52
84145;BME280;74264;48.988;12.040;2024-02-26T08:35:14;96361.22;;;3.46;81.34
84145;BME280;74264;48.988;12.040;2024-02-26T08:37:40;96348.97;;;3.55;80.67
84145;BME280;74264;48.988;12.040;2024-02-26T08:40:06;96363.19;;;3.60;80.38
84145;BME280;74264;48.988;12.040;2024-02-26T08:42:32;96359.75;;;3.60;79.78
84145;BME280;74264;48.988;12.040;2024-02-26T08:44:58;96363.88;;;3.70;80.36
84145;BME280;74264;48.988;12.040;2024-02-26T08:47:26;96365.66;;;3.78;79.69
84145;BME280;74264;48.988;12.040;2024-02-26T08:49:51;96359.28;;;3.88;79.10
84145;BME280;74264;48.988;12.040;2024-02-26T08:52:17;96368.59;;;3.99;79.47
84145;BME280;74264;48.988;12.040;2024-02-26T08:54:43;96370.88;;;4.10;79.56
84145;BME280;74264;48.988;12.040;2024-02-26T08:57:08;96378.72;;;4.18;78.84
84145;BME280;74264;48.988;12.040;2024-02-26T08:59:35;96370.38;;;4.15;78.58
84145;BME280;74264;48.988;12.040;2024-02-26T09:02:00;96366.94;;;4.22;78.28
84145;BME280;74264;48.988;12.040;2024-02-26T09:04:26;96366.59;;;4.33;78.28
84145;BME280;74264;48.988;12.040;2024-02-26T09:06:52;96368.22;;;4.34;77.17
84145;BME280;74264;48.988;12.040;2024-02-26T09:09:18;96365.22;;;4.45;77.12
84145;BME280;74264;48.988;12.040;2024-02-26T09:11:44;96370.59;;;4.60;77.16
84145;BME280;74264;48.988;12.040;2024-02-26T09:14:09;96365.66;;;4.65;75.91
84145;BME280;74264;48.988;12.040;2024-02-26T09:16:35;96366.09;;;4.84;76.43
84145;BME280;74264;48.988;12.040;2024-02-26T09:19:01;96368.97;;;4.97;76.05
84145;BME280;74264;48.988;12.040;2024-02-26T09:21:28;96365.59;;;5.20;77.43
84145;BME280;74264;48.988;12.040;2024-02-26T09:23:54;96368.25;;;5.42;77.44
84145;BME280;74264;48.988;12.040;2024-02-26T09:26:19;96363.53;;;5.60;74.50
84145;BME280;74264;48.988;12.040;2024-02-26T09:28:45;96376.88;;;5.73;73.38
84145;BME280;74264;48.988;12.040;2024-02-26T09:31:11;96380.13;;;5.83;72.56
84145;BME280;74264;48.988;12.040;2024-02-26T09:33:37;96377.16;;;5.86;72.27
84145;BME280;74264;48.988;12.040;2024-02-26T09:36:04;96384.06;;;6.02;73.50
84145;BME280;74264;48.988;12.040;2024-02-26T09:38:29;96381.56;;;6.09;70.24
84145;BME280;74264;48.988;12.040;2024-02-26T09:40:57;96383.22;;;6.24;68.88
84145;BME280;74264;48.988;12.040;2024-02-26T09:43:23;96380.72;;;6.45;70.56
84145;BME280;74264;48.988;12.040;2024-02-26T09:45:54;96381.19;;;6.63;71.66
84145;BME280;74264;48.988;12.040;2024-02-26T09:48:19;96384.34;;;6.73;70.16
84145;BME280;74264;48.988;12.040;2024-02-26T09:50:46;96376.00;;;6.84;71.61
84145;BME280;74264;48.988;12.040;2024-02-26T09:53:12;96370.66;;;6.92;70.88
84145;BME280;74264;48.988;12.040;2024-02-26T09:55:40;96358.84;;;6.88;70.94
84145;BME280;74264;48.988;12.040;2024-02-26T09:58:06;96357.22;;;7.02;70.60
84145;BME280;74264;48.988;12.040;2024-02-26T10:00:37;96353.41;;;7.05;71.93
84145;BME280;74264;48.988;12.040;2024-02-26T10:03:05;96366.41;;;7.27;70.47
84145;BME280;74264;48.988;12.040;2024-02-26T10:05:33;96368.69;;;7.30;67.50
84145;BME280;74264;48.988;12.040;2024-02-26T10:08:00;96367.47;;;7.12;67.69
84145;BME280;74264;48.988;12.040;2024-02-26T10:10:29;96366.44;;;7.13;68.19
84145;BME280;74264;48.988;12.040;2024-02-26T10:12:54;96367.06;;;7.15;66.94
84145;BME280;74264;48.988;12.040;2024-02-26T10:15:20;96368.84;;;7.29;71.77
84145;BME280;74264;48.988;12.040;2024-02-26T10:17:46;96375.03;;;7.36;68.68
84145;BME280;74264;48.988;12.040;2024-02-26T10:20:16;96370.72;;;7.49;66.66
84145;BME280;74264;48.988;12.040;2024-02-26T10:22:49;96378.22;;;7.67;66.32
84145;BME280;74264;48.988;12.040;2024-02-26T10:25:14;96388.50;;;7.83;65.24
84145;BME280;74264;48.988;12.040;2024-02-26T10:27:41;96378.75;;;8.04;65.74
84145;BME280;74264;48.988;12.040;2024-02-26T10:30:20;96376.56;;;8.08;67.54
84145;BME280;74264;48.988;12.040;2024-02-26T10:32:49;96370.91;;;8.11;65.51
84145;BME280;74264;48.988;12.040;2024-02-26T10:35:16;96378.63;;;8.13;68.42
84145;BME280;74264;48.988;12.040;2024-02-26T10:37:43;96369.28;;;8.10;68.28
84145;BME280;74264;48.988;12.040;2024-02-26T10:40:12;96371.72;;;8.12;65.32
84145;BME280;74264;48.988;12.040;2024-02-26T10:42:39;96372.13;;;8.30;67.51
84145;BME280;74264;48.988;12.040;2024-02-26T10:45:06;96374.66;;;8.44;64.71
84145;BME280;74264;48.988;12.040;2024-02-26T10:47:32;96377.31;;;8.51;63.11
84145;BME280;74264;48.988;12.040;2024-02-26T10:49:59;96376.22;;;8.66;66.68
84145;BME280;74264;48.988;12.040;2024-02-26T10:52:27;96384.84;;;8.81;65.56
84145;BME280;74264;48.988;12.040;2024-02-26T10:54:56;96388.13;;;8.83;61.67
84145;BME280;74264;48.988;12.040;2024-02-26T10:57:24;96394.81;;;8.86;62.48
84145;BME280;74264;48.988;12.040;2024-02-26T10:59:51;96387.25;;;9.11;59.98
84145;BME280;74264;48.988;12.040;2024-02-26T11:02:20;96386.19;;;9.05;64.80
84145;BME280;74264;48.988;12.040;2024-02-26T11:04:46;96378.66;;;9.02;62.35
84145;BME280;74264;48.988;12.040;2024-02-26T11:07:12;96385.16;;;8.99;61.77
84145;BME280;74264;48.988;12.040;2024-02-26T11:09:39;96378.91;;;9.07;62.20
84145;BME280;74264;48.988;12.040;2024-02-26T11:12:10;96380.41;;;9.29;63.87
84145;BME280;74264;48.988;12.040;2024-02-26T11:14:39;96384.75;;;9.50;62.30
84145;BME280;74264;48.988;12.040;2024-02-26T11:17:07;96384.19;;;9.14;58.41
84145;BME280;74264;48.988;12.040;2024-02-26T11:19:35;96374.50;;;9.27;58.97
84145;BME280;74264;48.988;12.040;2024-02-26T11:22:01;96375.59;;;9.46;60.01
84145;BME280;74264;48.988;12.040;2024-02-26T11:24:27;96363.63;;;9.63;61.53
84145;BME280;74264;48.988;12.040;2024-02-26T11:26:59;96375.25;;;9.75;61.91
84145;BME280;74264;48.988;12.040;2024-02-26T11:29:38;96375.06;;;9.76;62.53
84145;BME280;74264;48.988;12.040;2024-02-26T11:32:05;96368.72;;;9.58;61.34
84145;BME280;74264;48.988;12.040;2024-02-26T11:34:32;96366.28;;;9.63;60.25
84145;BME280;74264;48.988;12.040;2024-02-26T11:37:10;96372.19;;;9.65;59.30
84145;BME280;74264;48.988;12.040;2024-02-26T11:39:36;96368.06;;;9.43;60.98
84145;BME280;74264;48.988;12.040;2024-02-26T11:42:09;96352.03;;;9.51;59.67
84145;BME280;74264;48.988;12.040;2024-02-26T11:44:36;96354.22;;;9.41;58.72
84145;BME280;74264;48.988;12.040;2024-02-26T11:47:12;96357.84;;;9.27;62.85
84145;BME280;74264;48.988;12.040;2024-02-26T11:49:38;96360.69;;;9.25;61.73
84145;BME280;74264;48.988;12.040;2024-02-26T11:52:07;96364.78;;;9.41;62.36
84145;BME280;74264;48.988;12.040;2024-02-26T11:54:50;96371.31;;;9.45;62.53
84145;BME280;74264;48.988;12.040;2024-02-26T11:57:30;96361.19;;;9.55;60.43
84145;BME280;74264;48.988;12.040;2024-02-26T12:00:14;96361.03;;;9.69;59.63
84145;BME280;74264;48.988;12.040;2024-02-26T12:02:51;96359.19;;;9.70;61.51
84145;BME280;74264;48.988;12.040;2024-02-26T12:05:24;96367.31;;;9.62;61.74
84145;BME280;74264;48.988;12.040;2024-02-26T12:07:59;96363.25;;;9.72;62.25
84145;BME280;74264;48.988;12.040;2024-02-26T12:10:32;96355.94;;;9.68;62.08
84145;BME280;74264;48.988;12.040;2024-02-26T12:13:12;96362.25;;;9.73;61.10
84145;BME280;74264;48.988;12.040;2024-02-26T12:15:41;96370.22;;;9.86;58.84
84145;BME280;74264;48.988;12.040;2024-02-26T12:18:08;96380.75;;;9.80;62.98
84145;BME280;74264;48.988;12.040;2024-02-26T12:20:36;96381.97;;;9.71;62.55
84145;BME280;74264;48.988;12.040;2024-02-26T12:23:03;96378.03;;;9.54;62.56
84145;BME280;74264;48.988;12.040;2024-02-26T12:25:32;96378.03;;;9.54;62.97
84145;BME280;74264;48.988;12.040;2024-02-26T12:27:59;96384.19;;;9.74;59.22
84145;BME280;74264;48.988;12.040;2024-02-26T12:30:25;96387.91;;;9.86;58.75
84145;BME280;74264;48.988;12.040;2024-02-26T12:32:53;96394.97;;;9.72;61.70
84145;BME280;74264;48.988;12.040;2024-02-26T12:35:23;96393.13;;;9.60;59.22
84145;BME280;74264;48.988;12.040;2024-02-26T12:37:50;96393.56;;;9.76;58.94
84145;BME280;74264;48.988;12.040;2024-02-26T12:40:17;96384.47;;;9.92;57.37
84145;BME280;74264;48.988;12.040;2024-02-26T12:42:43;96386.31;;;10.11;58.24
84145;BME280;74264;48.988;12.040;2024-02-26T12:45:10;96391.03;;;10.29;59.72
84145;BME280;74264;48.988;12.040;2024-02-26T12:47:37;96399.16;;;10.34;59.99
84145;BME280;74264;48.988;12.040;2024-02-26T12:50:04;96399.16;;;10.66;60.48
84145;BME280;74264;48.988;12.040;2024-02-26T12:52:32;96410.13;;;10.83;61.04